Time;durP1;ratioP1;P1;durP2;ratioP2;P2;SDS_P1;SDS_P2;PMS_P1;PMS_P2;Temp;Humidity;BMP_temperature;BMP_pressure;BME280_temperature;BME280_humidity;BME280_pressure;Samples;Min_cycle;Max_cycle;Signal;HPM_P1;HPM_P2
2024/03/20 00:02:17;;;;;;;2.63;1.23;;;8.40;99.90;;;;;;4979228;28;20046;-63
2024/03/20 00:04:43;;;;;;;1.65;1.00;;;8.40;99.90;;;;;;4981439;28;20124;-62
2024/03/20 00:07:08;;;;;;;2.92;1.02;;;8.30;99.90;;;;;;4982007;28;20144;-63
2024/03/20 00:09:34;;;;;;;5.95;1.30;;;8.30;99.90;;;;;;4981856;28;20088;-62
2024/03/20 00:12:00;;;;;;;1.65;1.20;;;8.30;99.90;;;;;;4985585;28;20042;-63
2024/03/20 00:14:26;;;;;;;1.65;1.00;;;8.20;99.90;;;;;;4981861;28;20174;-63
2024/03/20 00:16:52;;;;;;;2.53;1.45;;;8.20;99.90;;;;;;4975691;28;20121;-63
2024/03/20 00:19:18;;;;;;;3.15;1.27;;;8.10;99.90;;;;;;4986861;28;20140;-63
2024/03/20 00:21:45;;;;;;;1.50;1.00;;;8.10;99.90;;;;;;4973353;28;20081;-63
2024/03/20 00:24:11;;;;;;;5.10;1.33;;;8.10;99.90;;;;;;4997128;28;20046;-63
2024/03/20 00:26:37;;;;;;;1.67;1.13;;;8.00;99.90;;;;;;4991376;28;20045;-63
2024/03/20 00:29:03;;;;;;;3.47;1.20;;;8.00;99.90;;;;;;4982894;28;20274;-64
2024/03/20 00:31:28;;;;;;;3.38;1.20;;;7.90;99.90;;;;;;4975709;28;20061;-62
2024/03/20 00:33:54;;;;;;;3.20;1.25;;;7.90;99.90;;;;;;4982294;28;20256;-62
2024/03/20 00:36:21;;;;;;;3.05;1.20;;;7.80;99.90;;;;;;4983363;28;20144;-62
2024/03/20 00:38:47;;;;;;;4.43;0.80;;;7.80;99.90;;;;;;4985301;28;20046;-62
2024/03/20 00:41:13;;;;;;;1.17;0.98;;;7.80;99.90;;;;;;4979854;28;20072;-62
2024/03/20 00:43:39;;;;;;;2.58;0.90;;;7.70;99.90;;;;;;4983044;28;20049;-63
2024/03/20 00:46:05;;;;;;;6.45;1.30;;;7.70;99.90;;;;;;4977619;28;20084;-63
2024/03/20 00:48:30;;;;;;;3.42;1.17;;;7.70;99.90;;;;;;4982794;28;20514;-63
2024/03/20 00:50:56;;;;;;;2.67;1.10;;;7.60;99.90;;;;;;4968681;28;20419;-63
2024/03/20 00:53:22;;;;;;;3.78;0.98;;;7.60;99.90;;;;;;4987783;28;20061;-62
2024/03/20 00:55:48;;;;;;;6.68;1.23;;;7.50;99.90;;;;;;4982534;28;20626;-62
2024/03/20 00:58:14;;;;;;;7.10;1.60;;;7.50;99.90;;;;;;4983456;28;20393;-62
2024/03/20 01:00:40;;;;;;;2.05;1.52;;;7.50;99.90;;;;;;4983459;28;20473;-63
2024/03/20 01:03:06;;;;;;;3.35;1.48;;;7.40;99.90;;;;;;4983742;28;20051;-62
2024/03/20 01:05:32;;;;;;;2.88;1.48;;;7.40;99.90;;;;;;4988068;28;20427;-63
2024/03/20 01:08:00;;;;;;;3.85;1.10;;;7.40;99.90;;;;;;4986612;28;20050;-63
2024/03/20 01:10:25;;;;;;;1.85;1.15;;;7.40;99.90;;;;;;4984494;28;20050;-62
2024/03/20 01:12:51;;;;;;;6.93;1.30;;;7.30;99.90;;;;;;4994031;28;20078;-62
2024/03/20 01:15:17;;;;;;;1.73;0.88;;;7.30;99.90;;;;;;4987025;28;20069;-62
2024/03/20 01:17:44;;;;;;;2.38;0.77;;;7.20;99.90;;;;;;4987797;28;20050;-61
2024/03/20 01:20:11;;;;;;;0.82;0.77;;;7.20;99.90;;;;;;4985294;28;20494;-63
2024/03/20 01:22:38;;;;;;;7.53;1.70;;;7.20;99.90;;;;;;4979134;28;20042;-63
2024/03/20 01:25:05;;;;;;;2.92;1.00;;;7.20;99.90;;;;;;4987850;28;20092;-63
2024/03/20 01:27:31;;;;;;;3.45;0.98;;;7.10;99.90;;;;;;4985205;28;20061;-62
2024/03/20 01:29:57;;;;;;;2.90;1.13;;;7.20;99.90;;;;;;4984685;28;20053;-62
2024/03/20 01:32:22;;;;;;;2.90;1.10;;;7.10;99.90;;;;;;4987974;28;20093;-62
2024/03/20 01:34:49;;;;;;;1.50;1.02;;;7.10;99.90;;;;;;4971419;28;20101;-63
2024/03/20 01:37:15;;;;;;;3.05;1.15;;;7.10;99.90;;;;;;4988265;28;20049;-63
2024/03/20 01:39:41;;;;;;;2.28;0.93;;;7.10;99.90;;;;;;4978158;28;20081;-62
2024/03/20 01:42:07;;;;;;;4.28;1.00;;;7.10;99.90;;;;;;4980882;28;20050;-62
2024/03/20 01:44:33;;;;;;;3.45;1.00;;;7.00;99.90;;;;;;4991165;28;20045;-62
2024/03/20 01:46:59;;;;;;;2.45;1.10;;;7.00;99.90;;;;;;4981055;28;20042;-62
2024/03/20 01:49:25;;;;;;;5.05;1.08;;;7.00;99.90;;;;;;4978262;28;20412;-62
2024/03/20 01:51:51;;;;;;;4.90;1.20;;;6.90;99.90;;;;;;4996770;28;20430;-62
2024/03/20 01:54:19;;;;;;;1.55;1.00;;;6.90;99.90;;;;;;4980371;28;20050;-61
2024/03/20 01:56:44;;;;;;;3.13;0.93;;;6.90;99.90;;;;;;4999676;28;20058;-62
2024/03/20 01:59:10;;;;;;;4.65;1.30;;;6.80;99.90;;;;;;4985408;28;20093;-63
2024/03/20 02:01:37;;;;;;;2.30;0.90;;;6.80;99.90;;;;;;4995875;28;20057;-62
2024/03/20 02:04:06;;;;;;;3.58;1.00;;;6.80;99.90;;;;;;4974623;28;20446;-63
2024/03/20 02:06:33;;;;;;;2.13;1.15;;;6.80;99.90;;;;;;4979348;28;20050;-62
2024/03/20 02:08:59;;;;;;;1.13;1.05;;;6.80;99.90;;;;;;4989312;28;20103;-63
2024/03/20 02:11:27;;;;;;;0.90;0.90;;;6.80;99.90;;;;;;4985450;28;20065;-62
2024/03/20 02:13:55;;;;;;;2.35;1.08;;;6.80;99.90;;;;;;4981417;28;20061;-62
2024/03/20 02:16:22;;;;;;;1.80;1.00;;;6.80;99.90;;;;;;4987486;28;20049;-62
2024/03/20 02:18:49;;;;;;;0.80;0.80;;;6.70;99.90;;;;;;4987328;28;20567;-62
2024/03/20 02:21:19;;;;;;;0.77;0.75;;;6.70;99.90;;;;;;4990323;28;20411;-62
2024/03/20 02:23:46;;;;;;;2.47;0.88;;;6.70;99.90;;;;;;4983286;28;20060;-62
2024/03/20 02:26:12;;;;;;;3.05;1.00;;;6.70;99.90;;;;;;4985891;28;20449;-62
2024/03/20 02:28:39;;;;;;;1.65;0.98;;;6.70;99.90;;;;;;4992228;28;20506;-62
2024/03/20 02:31:10;;;;;;;3.47;1.05;;;6.70;99.90;;;;;;4991940;28;20042;-63
2024/03/20 02:33:36;;;;;;;;;;;6.70;99.90;;;;;;4985670;28;20058;-63
2024/03/20 02:36:03;;;;;;;2.55;0.93;;;6.70;99.90;;;;;;4989637;28;19928;-63
2024/03/20 02:38:34;;;;;;;1.05;0.90;;;6.70;99.90;;;;;;5000183;28;20058;-63
2024/03/20 02:41:00;;;;;;;3.53;1.15;;;6.70;99.90;;;;;;4989367;28;20042;-63
2024/03/20 02:43:27;;;;;;;2.05;0.90;;;6.60;99.90;;;;;;4981831;28;20049;-63
2024/03/20 02:45:54;;;;;;;2.05;1.10;;;6.60;99.90;;;;;;4987308;28;20054;-63
2024/03/20 02:48:20;;;;;;;3.28;1.10;;;6.60;99.90;;;;;;4982260;28;20376;-63
2024/03/20 02:50:46;;;;;;;1.42;0.80;;;6.60;99.90;;;;;;4975845;28;20132;-63
2024/03/20 02:53:12;;;;;;;1.42;0.90;;;6.60;99.90;;;;;;4986557;28;20077;-63
2024/03/20 02:55:41;;;;;;;3.50;1.00;;;6.50;99.90;;;;;;4980109;28;20081;-63
2024/03/20 02:58:06;;;;;;;2.30;1.10;;;6.50;99.90;;;;;;4994394;28;20273;-63
2024/03/20 03:00:32;;;;;;;3.08;1.20;;;6.50;99.90;;;;;;4980719;28;20053;-63
2024/03/20 03:02:59;;;;;;;1.42;1.10;;;6.50;99.90;;;;;;4982481;28;20050;-63
2024/03/20 03:05:26;;;;;;;2.63;1.15;;;6.50;99.90;;;;;;4984677;28;20062;-63
2024/03/20 03:07:53;;;;;;;3.25;1.10;;;6.50;99.90;;;;;;4979076;28;20084;-63
2024/03/20 03:10:20;;;;;;;2.08;1.20;;;6.50;99.90;;;;;;4986207;28;20589;-63
2024/03/20 03:12:46;;;;;;;3.60;1.08;;;6.50;99.90;;;;;;4989112;28;20585;-63
2024/03/20 03:15:12;;;;;;;2.15;1.00;;;6.40;99.90;;;;;;4986799;28;20049;-63
2024/03/20 03:17:39;;;;;;;1.60;1.20;;;6.40;99.90;;;;;;4988134;28;20050;-63
2024/03/20 03:20:06;;;;;;;3.33;1.15;;;6.40;99.90;;;;;;4985557;28;20057;-64
2024/03/20 03:22:33;;;;;;;2.72;1.30;;;6.30;99.90;;;;;;4986022;28;20104;-64
2024/03/20 03:24:59;;;;;;;2.72;1.10;;;6.30;99.90;;;;;;4986963;28;20046;-63
2024/03/20 03:27:24;;;;;;;2.10;1.10;;;6.30;99.90;;;;;;4970410;28;20458;-63
2024/03/20 03:29:50;;;;;;;2.70;1.50;;;6.30;99.90;;;;;;4982792;28;20116;-63
2024/03/20 03:32:16;;;;;;;4.90;1.10;;;6.30;99.90;;;;;;4985859;28;20434;-63
2024/03/20 03:34:42;;;;;;;2.17;1.10;;;6.20;99.90;;;;;;4987768;28;20053;-63
2024/03/20 03:37:08;;;;;;;3.10;1.35;;;6.20;99.90;;;;;;4985067;28;20046;-63
2024/03/20 03:39:33;;;;;;;1.45;1.30;;;6.20;99.90;;;;;;4984640;28;20321;-62
2024/03/20 03:41:59;;;;;;;2.65;1.10;;;6.20;99.90;;;;;;4986536;28;20046;-63
2024/03/20 03:44:25;;;;;;;2.28;1.10;;;6.20;99.90;;;;;;4986821;28;20056;-62
2024/03/20 03:46:53;;;;;;;1.13;1.02;;;6.20;99.90;;;;;;4986470;28;20057;-62
2024/03/20 03:49:19;;;;;;;3.97;1.45;;;6.20;99.90;;;;;;4981207;28;20104;-62
2024/03/20 03:51:45;;;;;;;3.22;1.10;;;6.20;99.90;;;;;;4988395;28;20050;-63
2024/03/20 03:54:11;;;;;;;2.63;1.40;;;6.20;99.90;;;;;;4986709;28;20078;-63
2024/03/20 03:56:36;;;;;;;4.95;1.40;;;6.20;99.90;;;;;;4980307;28;20466;-62
2024/03/20 03:59:02;;;;;;;2.15;1.40;;;6.20;99.90;;;;;;4992376;28;20065;-63
2024/03/20 04:01:28;;;;;;;5.13;1.40;;;6.20;99.90;;;;;;4987015;28;20058;-63
2024/03/20 04:03:54;;;;;;;3.60;1.50;;;6.20;99.90;;;;;;4986594;28;20066;-62
2024/03/20 04:06:19;;;;;;;2.08;1.35;;;6.20;99.90;;;;;;4988063;28;20061;-62
2024/03/20 04:08:45;;;;;;;2.17;1.60;;;6.20;99.90;;;;;;4987393;28;20101;-62
2024/03/20 04:11:11;;;;;;;3.08;1.77;;;6.10;99.90;;;;;;4983584;28;20120;-63
2024/03/20 04:13:37;;;;;;;2.58;1.58;;;6.10;99.90;;;;;;4983270;28;20506;-63
2024/03/20 04:16:03;;;;;;;3.63;1.75;;;6.20;99.90;;;;;;4983386;28;20081;-63
2024/03/20 04:18:28;;;;;;;5.78;1.90;;;6.20;99.90;;;;;;4989179;28;20056;-63
2024/03/20 04:20:54;;;;;;;2.70;1.70;;;6.10;99.90;;;;;;4985266;28;20117;-63
2024/03/20 04:23:20;;;;;;;2.75;1.48;;;6.10;99.90;;;;;;4996967;28;20054;-63
2024/03/20 04:25:46;;;;;;;4.35;1.55;;;6.10;99.90;;;;;;4986573;28;20116;-63
2024/03/20 04:28:12;;;;;;;5.88;1.48;;;6.10;99.90;;;;;;4988613;28;20129;-63
2024/03/20 04:30:38;;;;;;;1.98;1.55;;;6.10;99.90;;;;;;4982221;28;20536;-62
2024/03/20 04:33:05;;;;;;;1.70;1.27;;;6.00;99.90;;;;;;4992454;28;20226;-63
2024/03/20 04:35:31;;;;;;;3.15;1.55;;;6.00;99.90;;;;;;4986163;28;20077;-64
2024/03/20 04:37:57;;;;;;;2.80;1.70;;;6.00;99.90;;;;;;4988166;28;20061;-63
2024/03/20 04:40:23;;;;;;;2.55;1.60;;;6.00;99.90;;;;;;4986372;28;20046;-64
2024/03/20 04:42:49;;;;;;;2.15;1.40;;;5.90;99.90;;;;;;4982493;28;20074;-64
2024/03/20 04:45:15;;;;;;;4.72;1.52;;;6.00;99.90;;;;;;4986443;28;20041;-64
2024/03/20 04:47:41;;;;;;;3.15;1.45;;;5.90;99.90;;;;;;4992357;28;21175;-64
2024/03/20 04:50:11;;;;;;;3.40;1.45;;;5.90;99.90;;;;;;4994551;28;20140;-64
2024/03/20 04:52:38;;;;;;;3.50;1.30;;;5.90;99.90;;;;;;4988117;28;20058;-64
2024/03/20 04:55:05;;;;;;;3.78;1.50;;;5.90;99.90;;;;;;4976098;28;20041;-64
2024/03/20 04:57:31;;;;;;;3.25;1.50;;;5.80;99.90;;;;;;4982855;28;20081;-64
2024/03/20 04:59:57;;;;;;;2.70;1.55;;;5.80;99.90;;;;;;4980525;28;20554;-64
2024/03/20 05:02:22;;;;;;;7.57;3.20;;;5.80;99.90;;;;;;4986285;28;20049;-64
2024/03/20 05:04:48;;;;;;;3.83;1.85;;;5.70;99.90;;;;;;4996687;28;20060;-64
2024/03/20 05:07:14;;;;;;;1.55;1.20;;;5.70;99.90;;;;;;4985930;28;20422;-64
2024/03/20 05:09:40;;;;;;;3.10;1.83;;;5.60;99.90;;;;;;4984605;28;20478;-64
2024/03/20 05:12:06;;;;;;;2.35;1.70;;;5.60;99.90;;;;;;4984932;28;20069;-64
2024/03/20 05:14:32;;;;;;;2.95;1.45;;;5.60;99.90;;;;;;4980465;28;20061;-63
2024/03/20 05:17:00;;;;;;;1.30;1.20;;;5.60;99.90;;;;;;5003117;28;20141;-64
2024/03/20 05:19:29;;;;;;;3.80;2.00;;;5.60;99.90;;;;;;4983737;28;20046;-64
2024/03/20 05:21:55;;;;;;;4.18;1.50;;;5.60;99.90;;;;;;4980869;28;20050;-63
2024/03/20 05:24:20;;;;;;;4.35;1.38;;;5.50;99.90;;;;;;4981671;28;20058;-64
2024/03/20 05:26:46;;;;;;;3.90;1.50;;;5.60;99.90;;;;;;4989307;28;20140;-63
2024/03/20 05:29:16;;;;;;;2.80;1.83;;;5.50;99.90;;;;;;4985106;28;20065;-63
2024/03/20 05:31:58;;;;;;;1.85;1.42;;;5.60;99.90;;;;;;4966173;28;20077;-64
2024/03/20 05:34:23;;;;;;;2.30;1.20;;;5.60;99.90;;;;;;4946348;28;20047;-64
2024/03/20 05:36:49;;;;;;;3.72;1.60;;;5.60;99.90;;;;;;4948050;28;20067;-64
2024/03/20 05:39:15;;;;;;;2.80;1.20;;;5.60;99.90;;;;;;4947483;28;20043;-64
2024/03/20 05:41:41;;;;;;;3.92;1.30;;;5.60;99.90;;;;;;4963428;28;20578;-64
2024/03/20 05:44:06;;;;;;;4.57;1.77;;;5.60;99.90;;;;;;4962224;28;20527;-64
2024/03/20 05:46:33;;;;;;;2.40;1.60;;;5.70;99.90;;;;;;4967369;28;20054;-64
2024/03/20 05:48:59;;;;;;;2.55;1.35;;;5.70;99.90;;;;;;4966195;28;20507;-64
2024/03/20 05:51:26;;;;;;;3.88;1.50;;;5.70;99.90;;;;;;4960437;28;20053;-64
2024/03/20 05:53:51;;;;;;;3.80;1.45;;;5.80;99.90;;;;;;4962669;28;20065;-64
2024/03/20 05:56:18;;;;;;;5.25;1.48;;;5.80;99.90;;;;;;4967062;28;20785;-64
2024/03/20 05:58:44;;;;;;;5.85;1.50;;;5.90;99.90;;;;;;4965356;28;20046;-64
2024/03/20 06:01:10;;;;;;;5.22;1.60;;;5.90;99.90;;;;;;4963761;28;20529;-65
2024/03/20 06:03:36;;;;;;;2.95;1.73;;;5.90;99.90;;;;;;4962543;28;20042;-64
2024/03/20 06:06:03;;;;;;;5.03;1.80;;;5.90;99.90;;;;;;4962728;28;20535;-64
2024/03/20 06:08:28;;;;;;;3.95;1.67;;;6.00;99.90;;;;;;4958966;28;20055;-65
2024/03/20 06:11:12;;;;;;;4.60;1.65;;;6.00;99.90;;;;;;4981635;28;20053;-64
2024/03/20 06:13:38;;;;;;;6.80;1.80;;;6.00;99.90;;;;;;4962671;28;20054;-64
2024/03/20 06:16:04;;;;;;;3.75;1.40;;;6.10;99.90;;;;;;4963879;28;20058;-64
2024/03/20 06:18:30;;;;;;;1.88;1.25;;;6.10;99.90;;;;;;4964849;28;20062;-65
2024/03/20 06:20:56;;;;;;;2.40;1.45;;;6.20;99.90;;;;;;4967901;28;20131;-65
2024/03/20 06:23:22;;;;;;;3.35;1.67;;;6.20;99.90;;;;;;4967946;28;20071;-64
2024/03/20 06:25:48;;;;;;;5.82;2.00;;;6.30;99.90;;;;;;4971956;28;20054;-64
2024/03/20 06:28:14;;;;;;;3.53;2.97;;;6.40;99.90;;;;;;4969069;28;20658;-64
2024/03/20 06:30:39;;;;;;;5.72;2.00;;;6.40;99.90;;;;;;4936263;28;1043761;-64
2024/03/20 06:33:09;;;;;;;9.50;4.50;;;6.50;99.90;;;;;;4972331;28;20073;-64
2024/03/20 06:35:35;;;;;;;7.45;3.97;;;6.50;99.90;;;;;;4969774;28;20046;-64
2024/03/20 06:38:03;;;;;;;5.38;3.67;;;6.60;99.90;;;;;;4970664;28;20054;-64
2024/03/20 06:40:32;;;;;;;4.30;3.90;;;6.60;99.90;;;;;;4969450;28;20606;-64
2024/03/20 06:43:02;;;;;;;5.15;4.30;;;6.70;99.90;;;;;;4973212;28;20112;-65
2024/03/20 06:45:32;;;;;;;8.55;3.88;;;6.80;99.90;;;;;;4973932;28;20050;-65
2024/03/20 06:47:58;;;;;;;5.93;2.78;;;6.80;99.90;;;;;;4973890;28;20525;-65
2024/03/20 06:50:27;;;;;;;8.05;3.13;;;6.90;99.90;;;;;;4967943;28;20058;-65
2024/03/20 06:52:58;;;;;;;3.70;2.80;;;7.10;99.90;;;;;;4974117;28;20116;-65
2024/03/20 06:55:28;;;;;;;5.50;2.92;;;7.30;99.90;;;;;;4971506;28;20058;-65
2024/03/20 06:57:53;;;;;;;3.10;2.38;;;7.40;99.90;;;;;;4964113;28;20113;-65
2024/03/20 07:00:20;;;;;;;3.97;2.70;;;7.50;99.90;;;;;;4973633;28;20050;-65
2024/03/20 07:02:46;;;;;;;3.17;2.58;;;7.60;99.90;;;;;;4972813;28;20057;-65
2024/03/20 07:05:14;;;;;;;4.15;2.50;;;7.70;99.90;;;;;;4970756;28;20046;-65
2024/03/20 07:07:41;;;;;;;3.75;2.67;;;7.70;99.90;;;;;;4971075;28;20131;-65
2024/03/20 07:10:08;;;;;;;6.03;3.28;;;7.80;99.90;;;;;;4972227;28;20046;-65
2024/03/20 07:12:35;;;;;;;9.20;5.18;;;7.90;99.90;;;;;;4971321;28;20062;-65
2024/03/20 07:15:06;;;;;;;13.73;3.25;;;8.10;99.90;;;;;;4956273;28;20050;-65
2024/03/20 07:17:33;;;;;;;5.63;2.80;;;8.10;99.90;;;;;;4971015;28;20057;-65
2024/03/20 07:19:59;;;;;;;6.35;3.17;;;8.20;99.90;;;;;;4962318;28;20146;-65
2024/03/20 07:22:25;;;;;;;4.80;2.78;;;8.30;99.90;;;;;;4967223;28;20062;-65
2024/03/20 07:24:51;;;;;;;4.50;3.08;;;8.40;99.90;;;;;;4968310;28;20046;-64
2024/03/20 07:27:16;;;;;;;4.75;3.05;;;8.30;99.90;;;;;;4969422;28;20050;-65
2024/03/20 07:29:42;;;;;;;3.65;2.90;;;8.50;99.90;;;;;;4953979;28;20053;-65
2024/03/20 07:32:11;;;;;;;4.57;3.42;;;8.50;99.90;;;;;;4969652;28;20059;-65
2024/03/20 07:34:37;;;;;;;7.35;3.28;;;8.60;99.90;;;;;;4966325;28;20450;-65
2024/03/20 07:37:04;;;;;;;5.78;3.03;;;8.70;99.90;;;;;;4971390;28;20058;-65
2024/03/20 07:39:33;;;;;;;8.20;3.05;;;8.80;99.90;;;;;;4970489;28;20117;-65
2024/03/20 07:42:03;;;;;;;5.57;2.85;;;8.90;99.90;;;;;;4962211;28;20062;-65
2024/03/20 07:44:30;;;;;;;6.35;2.97;;;9.00;99.90;;;;;;4967137;28;20046;-65
2024/03/20 07:47:00;;;;;;;3.40;2.47;;;9.10;99.90;;;;;;4967851;28;20050;-65
2024/03/20 07:49:26;;;;;;;9.35;3.10;;;9.10;99.90;;;;;;4966618;28;20407;-65
2024/03/20 07:51:54;;;;;;;4.40;2.38;;;9.20;99.90;;;;;;4970359;28;20062;-65
2024/03/20 07:54:23;;;;;;;5.55;2.63;;;9.10;99.90;;;;;;4969104;28;20058;-65
2024/03/20 07:56:53;;;;;;;6.88;3.08;;;9.10;99.90;;;;;;4969285;28;20061;-65
2024/03/20 07:59:20;;;;;;;2.78;2.30;;;9.20;99.90;;;;;;4969537;28;20054;-65
2024/03/20 08:01:46;;;;;;;5.28;2.90;;;9.20;99.90;;;;;;4967707;28;20050;-65
2024/03/20 08:04:12;;;;;;;10.07;2.75;;;9.20;99.90;;;;;;4959436;28;20399;-65
2024/03/20 08:06:39;;;;;;;5.65;2.85;;;9.30;99.90;;;;;;4969155;28;20074;-65
2024/03/20 08:09:05;;;;;;;4.95;3.15;;;9.30;99.90;;;;;;4966021;28;20061;-65
2024/03/20 08:11:32;;;;;;;8.20;2.60;;;9.40;99.90;;;;;;4967418;28;20122;-65
2024/03/20 08:13:58;;;;;;;12.27;2.67;;;9.40;99.90;;;;;;4969648;28;20047;-65
2024/03/20 08:16:24;;;;;;;6.70;2.63;;;9.50;99.90;;;;;;4963677;28;20057;-65
2024/03/20 08:18:49;;;;;;;8.15;3.22;;;9.60;99.90;;;;;;4962859;28;20061;-65
2024/03/20 08:21:17;;;;;;;5.90;2.97;;;9.60;99.90;;;;;;4967267;28;20471;-65
2024/03/20 08:23:43;;;;;;;7.15;3.60;;;9.70;99.90;;;;;;4955438;28;20050;-65
2024/03/20 08:26:09;;;;;;;5.93;3.08;;;9.80;99.90;;;;;;4969804;28;20487;-65
2024/03/20 08:28:35;;;;;;;7.65;3.22;;;9.80;99.90;;;;;;4968074;28;20137;-65
2024/03/20 08:31:08;;;;;;;5.50;3.78;;;10.00;99.90;;;;;;4967739;28;20057;-65
2024/03/20 08:33:34;;;;;;;4.07;3.13;;;10.10;99.90;;;;;;4964432;28;20050;-65
2024/03/20 08:35:59;;;;;;;6.78;3.17;;;10.20;99.90;;;;;;4968465;28;20063;-65
2024/03/20 08:38:27;;;;;;;6.00;3.10;;;10.20;99.90;;;;;;4970787;28;20057;-66
2024/03/20 08:40:53;;;;;;;5.43;3.60;;;10.40;99.90;;;;;;4965279;28;20046;-63
2024/03/20 08:43:19;;;;;;;10.07;3.33;;;10.50;99.90;;;;;;4964111;28;20069;-63
2024/03/20 08:45:47;;;;;;;4.47;3.35;;;10.60;99.90;;;;;;4968385;28;20046;-64
2024/03/20 08:48:13;;;;;;;5.45;2.92;;;10.70;99.90;;;;;;4970126;28;20073;-64
2024/03/20 08:50:40;;;;;;;4.65;3.45;;;10.80;99.90;;;;;;4967794;28;20050;-64
2024/03/20 08:53:09;;;;;;;3.50;3.20;;;10.90;99.90;;;;;;4969718;28;20502;-64
2024/03/20 08:55:35;;;;;;;5.07;3.47;;;11.00;99.90;;;;;;4963017;28;20058;-64
2024/03/20 08:58:01;;;;;;;5.30;3.58;;;11.10;99.90;;;;;;4967067;28;20507;-64
2024/03/20 09:00:27;;;;;;;4.72;3.72;;;11.20;99.90;;;;;;4966339;28;20105;-64
2024/03/20 09:02:53;;;;;;;5.85;3.85;;;11.20;99.90;;;;;;4966023;28;20043;-63
2024/03/20 09:05:19;;;;;;;5.57;4.30;;;11.30;99.90;;;;;;4970395;28;20042;-64
2024/03/20 09:07:45;;;;;;;5.88;4.25;;;11.40;99.90;;;;;;4968547;28;20566;-64
2024/03/20 09:10:12;;;;;;;9.50;5.90;;;11.40;99.90;;;;;;4967941;28;20057;-64
2024/03/20 09:12:38;;;;;;;9.13;6.00;;;11.50;99.90;;;;;;4966705;28;20047;-64
2024/03/20 09:15:05;;;;;;;7.00;5.30;;;11.60;99.90;;;;;;4968381;28;20046;-65
2024/03/20 09:17:31;;;;;;;6.70;4.85;;;11.70;99.90;;;;;;4966972;28;20117;-65
2024/03/20 09:19:57;;;;;;;5.80;4.68;;;11.80;99.90;;;;;;4968247;28;20057;-65
2024/03/20 09:22:23;;;;;;;5.20;3.97;;;11.90;99.90;;;;;;4969441;28;20054;-65
2024/03/20 09:24:50;;;;;;;7.43;4.88;;;12.00;99.90;;;;;;4970466;28;20050;-63
2024/03/20 09:27:16;;;;;;;9.55;4.07;;;12.10;99.90;;;;;;4971611;28;20070;-65
2024/03/20 09:29:42;;;;;;;4.90;3.47;;;12.20;99.90;;;;;;4972188;28;20086;-65
2024/03/20 09:32:08;;;;;;;15.27;7.60;;;12.30;99.90;;;;;;4973560;28;20058;-65
2024/03/20 09:34:35;;;;;;;4.90;3.33;;;12.40;99.90;;;;;;4974252;28;20058;-64
2024/03/20 09:37:01;;;;;;;7.28;3.95;;;12.40;99.90;;;;;;4971537;28;20049;-65
2024/03/20 09:39:27;;;;;;;7.18;3.83;;;12.50;99.90;;;;;;4972554;28;20050;-64
2024/03/20 09:41:54;;;;;;;12.55;4.45;;;12.60;99.90;;;;;;4973493;28;20053;-65
2024/03/20 09:44:22;;;;;;;20.33;8.20;;;12.70;99.90;;;;;;4969367;28;20133;-67
2024/03/20 09:46:50;;;;;;;9.63;4.07;;;12.70;99.90;;;;;;4964355;28;20549;-65
2024/03/20 09:49:19;;;;;;;7.10;3.72;;;12.80;99.90;;;;;;4966768;28;20066;-65
2024/03/20 09:51:45;;;;;;;3.88;3.00;;;12.80;99.90;;;;;;4973295;28;20502;-65
2024/03/20 09:54:11;;;;;;;6.20;2.97;;;12.80;99.90;;;;;;4969177;28;20046;-65
2024/03/20 09:56:37;;;;;;;4.68;3.10;;;12.90;99.90;;;;;;4966240;28;20597;-64
2024/03/20 09:59:07;;;;;;;7.22;4.40;;;12.90;99.90;;;;;;4967513;28;20050;-64
2024/03/20 10:01:33;;;;;;;5.05;3.50;;;13.00;99.90;;;;;;4969835;28;20053;-64
2024/03/20 10:04:08;;;;;;;6.03;3.58;;;13.10;99.90;;;;;;4973726;28;20046;-64
2024/03/20 10:06:35;;;;;;;4.70;4.05;;;13.20;99.90;;;;;;4971181;28;20046;-64
2024/03/20 10:09:16;;;;;;;6.15;3.97;;;13.20;99.90;;;;;;4972039;28;20104;-64
2024/03/20 10:11:41;;;;;;;;;;;13.30;99.90;;;;;;4970419;28;20050;-65
2024/03/20 10:14:11;;;;;;;18.40;7.50;;;13.30;99.90;;;;;;4971465;28;19928;-65
2024/03/20 10:16:39;;;;;;;8.18;4.13;;;13.50;99.90;;;;;;4972876;28;20514;-65
2024/03/20 10:19:05;;;;;;;10.20;4.72;;;13.60;99.90;;;;;;4966521;28;20467;-66
2024/03/20 10:21:33;;;;;;;6.57;3.75;;;13.70;99.90;;;;;;4957159;28;20046;-64
2024/03/20 10:23:59;;;;;;;6.90;3.65;;;13.70;99.90;;;;;;4970226;28;20439;-64
2024/03/20 10:26:25;;;;;;;8.00;3.45;;;13.80;99.90;;;;;;4971379;28;20061;-64
2024/03/20 10:28:52;;;;;;;5.93;3.83;;;13.90;99.90;;;;;;4967018;28;20415;-64
2024/03/20 10:31:21;;;;;;;5.65;3.70;;;14.00;99.90;;;;;;4968531;28;20065;-64
2024/03/20 10:33:49;;;;;;;8.15;3.58;;;14.20;99.90;;;;;;4971318;28;20530;-64
2024/03/20 10:36:17;;;;;;;7.15;3.67;;;14.20;99.90;;;;;;4971621;28;20051;-64
2024/03/20 10:38:44;;;;;;;4.47;3.10;;;14.40;99.90;;;;;;4971703;28;20566;-64
2024/03/20 10:41:15;;;;;;;8.93;2.90;;;14.30;99.90;;;;;;4967294;28;20376;-65
2024/03/20 10:43:41;;;;;;;;;;;14.40;99.90;;;;;;4967668;28;20050;-64
2024/03/20 10:46:16;;;;;;;4.60;3.22;;;14.60;99.90;;;;;;4970240;28;19925;-64
2024/03/20 10:48:42;;;;;;;6.75;3.60;;;14.50;99.90;;;;;;4970336;28;20057;-64
2024/03/20 10:51:14;;;;;;;3.63;2.60;;;14.60;99.90;;;;;;4969865;28;20046;-64
2024/03/20 10:53:41;;;;;;;4.78;3.20;;;14.50;99.90;;;;;;4968931;28;20104;-64
2024/03/20 10:56:07;;;;;;;5.68;3.15;;;14.50;99.90;;;;;;4966265;28;20047;-64
2024/03/20 10:58:33;;;;;;;5.57;2.65;;;14.40;99.90;;;;;;4970143;28;20057;-64
2024/03/20 11:01:00;;;;;;;5.25;3.35;;;14.60;99.90;;;;;;4970062;28;20054;-63
2024/03/20 11:03:43;;;;;;;6.18;3.40;;;14.60;99.90;;;;;;4968769;28;20046;-63
2024/03/20 11:08:58;;;;;;;4.53;2.85;;;14.60;99.90;;;;;;4971090;28;20172;-65
2024/03/20 11:11:30;;;;;;;5.63;2.90;;;14.80;99.90;;;;;;4972188;28;20050;-64
2024/03/20 11:14:03;;;;;;;3.90;3.03;;;15.00;99.90;;;;;;4968549;28;20050;-64
2024/03/20 11:16:30;;;;;;;8.63;3.00;;;15.10;99.90;;;;;;4974483;28;20054;-65
2024/03/20 11:19:09;;;;;;;3.13;2.45;;;15.10;99.90;;;;;;4963607;28;20109;-65
2024/03/20 11:21:38;;;;;;;5.75;2.50;;;15.10;99.90;;;;;;4967788;28;20054;-65
2024/03/20 11:24:05;;;;;;;4.55;2.88;;;15.10;99.90;;;;;;4967342;28;20384;-65
2024/03/20 11:26:32;;;;;;;4.63;3.08;;;15.10;99.90;;;;;;4966489;28;20154;-65
2024/03/20 11:28:59;;;;;;;4.43;3.00;;;15.20;99.90;;;;;;4964605;28;20055;-65
2024/03/20 11:31:25;;;;;;;4.68;2.80;;;15.40;99.90;;;;;;4958079;28;20129;-65
2024/03/20 11:33:51;;;;;;;3.92;3.03;;;15.50;99.90;;;;;;4962843;28;20117;-65
2024/03/20 11:36:18;;;;;;;4.22;2.35;;;15.50;99.90;;;;;;4968346;28;20146;-65
2024/03/20 11:38:45;;;;;;;3.25;2.83;;;15.60;99.90;;;;;;4968961;28;20077;-64
2024/03/20 11:41:11;;;;;;;8.68;2.65;;;15.60;99.90;;;;;;4964037;28;20054;-64
2024/03/20 11:43:43;;;;;;;9.23;3.33;;;15.70;99.90;;;;;;4964381;28;20047;-64
2024/03/20 11:46:17;;;;;;;4.90;2.72;;;15.60;99.90;;;;;;4964300;28;20111;-64
2024/03/20 11:48:47;;;;;;;5.72;3.13;;;15.70;99.90;;;;;;4964273;28;20051;-65
2024/03/20 11:51:15;;;;;;;4.05;2.65;;;15.60;99.90;;;;;;4965972;28;20051;-65
2024/03/20 11:53:41;;;;;;;3.80;2.90;;;15.70;99.90;;;;;;4964280;28;20046;-65
2024/03/20 11:56:09;;;;;;;4.28;2.85;;;15.80;99.90;;;;;;4962085;28;20065;-64
2024/03/20 11:58:36;;;;;;;6.43;2.58;;;15.80;99.90;;;;;;4967767;28;20397;-64
2024/03/20 12:01:08;;;;;;;5.93;2.72;;;15.90;99.90;;;;;;4967660;28;20047;-65
2024/03/20 12:03:38;;;;;;;5.50;2.53;;;16.10;99.90;;;;;;4965879;28;20065;-65
2024/03/20 12:06:11;;;;;;;3.83;2.03;;;16.20;99.90;;;;;;4966902;28;20046;-65
2024/03/20 12:08:38;;;;;;;4.53;2.50;;;16.20;99.90;;;;;;4958109;28;20074;-65
2024/03/20 12:11:33;;;;;;;7.03;2.75;;;16.20;99.90;;;;;;4963847;28;20195;-65
2024/03/20 12:13:59;;;;;;;5.88;2.60;;;16.30;99.90;;;;;;4953153;28;20054;-64
2024/03/20 12:16:32;;;;;;;3.53;2.22;;;16.40;99.90;;;;;;4962558;28;20412;-65
2024/03/20 12:18:58;;;;;;;3.22;2.25;;;16.50;99.90;;;;;;4962610;28;20050;-64
2024/03/20 12:21:23;;;;;;;4.13;2.25;;;16.60;99.90;;;;;;4965216;28;20370;-65
2024/03/20 12:23:50;;;;;;;5.28;2.20;;;16.70;99.90;;;;;;4983607;28;20070;-65
2024/03/20 12:26:24;;;;;;;7.45;2.28;;;16.80;99.90;;;;;;4966920;28;20066;-65
2024/03/20 12:28:51;;;;;;;2.53;1.80;;;16.90;99.90;;;;;;4969150;28;21135;-64
2024/03/20 12:31:22;;;;;;;4.75;2.30;;;16.90;99.90;;;;;;4964887;28;20061;-64
2024/03/20 12:33:51;;;;;;;3.40;2.10;;;16.90;99.90;;;;;;4963542;28;20051;-64
2024/03/20 12:36:17;;;;;;;3.55;2.15;;;16.90;99.90;;;;;;4963455;28;20055;-64
2024/03/20 12:38:45;;;;;;;3.97;2.00;;;16.80;99.90;;;;;;4969811;28;20422;-62
2024/03/20 12:41:15;;;;;;;5.80;2.08;;;16.90;99.90;;;;;;4964013;28;20065;-64
2024/03/20 12:43:41;;;;;;;5.53;2.35;;;16.90;99.90;;;;;;4967421;28;20050;-63
2024/03/20 12:46:08;;;;;;;4.40;1.75;;;16.90;99.90;;;;;;4962431;28;20057;-63
2024/03/20 12:48:34;;;;;;;5.05;1.90;;;17.00;99.90;;;;;;4965618;28;20545;-65
2024/03/20 12:51:03;;;;;;;4.03;1.98;;;17.10;99.90;;;;;;4967602;28;20058;-64
2024/03/20 12:53:30;;;;;;;2.58;1.92;;;17.10;99.90;;;;;;4967073;28;20051;-63
2024/03/20 12:55:56;;;;;;;3.20;1.77;;;17.20;99.90;;;;;;4964952;28;20496;-63